Ocean Crest, NC

11:21 PM EDT on June 24, 2017 (GMT -0400)
| | Change Station
Active Advisory: Beach Hazard Statement

Elev -9999 ft 0.00 °N, 0.00 °E | Updated 1 minute ago

Rain
Rain
°F
Feels Like °F
N
Wind Variable Wind from North
Gusts mph

Today
High -- | Low -- °F
--% Chance of Precip.
Yesterday
High -- | Low -- °F
Precip. -- in
Pressure 30.01 in
Visibility 10.0 miles
Clouds Few 2900 ft
Mostly Cloudy 4400 ft
Overcast 7000 ft
Dew Point Not available.
Humidity Not available.
Rainfall --
Snow Depth Not available.
5:56 AM 8:24 PM
New Moon, 2% visible
METAR KNKT 250254Z 20006KT 10SM RA BR FEW029 BKN044 OVC070 23/22 A3002 RMK AO2 SLP163 P0004 60013 T02330222 53007 $
Pressure 30.01 in
Visibility 10.0 miles
Clouds Few 2900 ft
Mostly Cloudy 4400 ft
Overcast 7000 ft
Dew Point Not available.
Humidity Not available.
Rainfall --
Snow Depth Not available.
5:56 AM 8:24 PM
New Moon, 2% visible
METAR KNKT 250254Z 20006KT 10SM RA BR FEW029 BKN044 OVC070 23/22 A3002 RMK AO2 SLP163 P0004 60013 T02330222 53007 $

Get Your Daily Forecast Email!

Thanks for signing up!

Be on the lookout for a verification email in your inbox.

You'll start receiving severe weather alerts in your inbox..

×

10-Day Weather Forecast

Almanac

Astronomy

Jun. 24, 2017 Rise Set
Actual Time
Civil Twilight
Nautical Twilight
Astronomical Twilight
Moon
Length of Visible Light
Length of Day
Tomorrow will be .
, % of the Moon is Illuminated

Today's Extremes

State Highs State Lows

Community

WunderPhotos

Category 6

Welcome to Category 6. This is the collective home for Weather Underground's featured writeups by Dr. Jeff Masters (right), Bob Henson (left), Chris Burt, and other regular contributors.

Nearby

Air Quality

  Air Quality AQ Index Pollutant
Not available.

Snow Depth

Station Depth Elevation

Earthquake Activity

City Distance Mag. Time & Date
Minimum magnitude displayed is 2.5.

Coastal Water Temperatures

Place Temperature

Stations

Nearby Weather Stations

Station Location Temp. Windchill Dew Point Humidity Wind Precip. Elev Updated Type
                   

Watches & Warnings

Beach Hazard Statement
Issued: 8:49 PM EDT Jun. 24, 2017 – National Weather Service

... Beach hazards statement in effect through Sunday evening...

The National Weather Service in Newport/Morehead City has issued
a beach hazards statement, which is in effect through Sunday
evening.

* Hazards... high threat of rip currents.

* Location... from Surf City to Cape Lookout.

* Timing and tides... the most likely time for strong rip currents
to occur is a couple hours either side of low tide, which will
occur around 3 PM today.

Precautionary/preparedness actions...

If caught in a rip current remain calm. Don't fight the current.
Swim in a direction following the shoreline. When out of the
current, swim back to shore. If tired, float or tread water until
out of the rip current. If unable to escape, face the shore and
call or wave for help.